sensor_id;sensor_type;location;lat;lon;timestamp;P1;durP1;ratioP1;P2;durP2;ratioP2
65071;SDS011;51663;52.310;17.016;2023-04-25T00:02:52;1.30;;;1.20;;
65071;SDS011;51663;52.310;17.016;2023-04-25T00:07:03;1.67;;;1.50;;
65071;SDS011;51663;52.310;17.016;2023-04-25T00:11:02;2.37;;;1.47;;
65071;SDS011;51663;52.310;17.016;2023-04-25T00:14:47;2.17;;;1.40;;
65071;SDS011;51663;52.310;17.016;2023-04-25T00:17:51;1.60;;;1.50;;
65071;SDS011;51663;52.310;17.016;2023-04-25T00:28:57;1.67;;;1.40;;
65071;SDS011;51663;52.310;17.016;2023-04-25T00:32:06;1.97;;;1.30;;
65071;SDS011;51663;52.310;17.016;2023-04-25T00:35:55;2.70;;;1.23;;
65071;SDS011;51663;52.310;17.016;2023-04-25T00:47:18;2.00;;;1.33;;
65071;SDS011;51663;52.310;17.016;2023-04-25T00:50:21;2.53;;;1.40;;
65071;SDS011;51663;52.310;17.016;2023-04-25T00:57:59;1.70;;;1.60;;
65071;SDS011;51663;52.310;17.016;2023-04-25T01:02:07;1.40;;;1.30;;
65071;SDS011;51663;52.310;17.016;2023-04-25T01:05:55;2.53;;;1.20;;
65071;SDS011;51663;52.310;17.016;2023-04-25T01:13:27;1.63;;;1.50;;
65071;SDS011;51663;52.310;17.016;2023-04-25T01:17:13;1.83;;;1.30;;
65071;SDS011;51663;52.310;17.016;2023-04-25T01:20:46;1.50;;;1.40;;
65071;SDS011;51663;52.310;17.016;2023-04-25T01:24:45;2.50;;;1.50;;
65071;SDS011;51663;52.310;17.016;2023-04-25T01:28:39;2.83;;;1.43;;
65071;SDS011;51663;52.310;17.016;2023-04-25T01:36:46;1.97;;;1.60;;
65071;SDS011;51663;52.310;17.016;2023-04-25T01:40:11;1.53;;;1.43;;
65071;SDS011;51663;52.310;17.016;2023-04-25T01:43:48;1.63;;;1.53;;
65071;SDS011;51663;52.310;17.016;2023-04-25T01:50:57;1.60;;;1.40;;
65071;SDS011;51663;52.310;17.016;2023-04-25T01:58:35;1.90;;;1.70;;
65071;SDS011;51663;52.310;17.016;2023-04-25T02:05:51;1.60;;;1.50;;
65071;SDS011;51663;52.310;17.016;2023-04-25T02:08:53;2.43;;;1.80;;
65071;SDS011;51663;52.310;17.016;2023-04-25T02:12:04;2.27;;;1.87;;
65071;SDS011;51663;52.310;17.016;2023-04-25T02:19:46;2.33;;;2.13;;
65071;SDS011;51663;52.310;17.016;2023-04-25T02:22:53;2.03;;;1.90;;
65071;SDS011;51663;52.310;17.016;2023-04-25T02:29:22;2.30;;;2.10;;
65071;SDS011;51663;52.310;17.016;2023-04-25T02:33:04;2.23;;;2.03;;
65071;SDS011;51663;52.310;17.016;2023-04-25T02:37:19;2.30;;;2.10;;
65071;SDS011;51663;52.310;17.016;2023-04-25T02:40:25;2.40;;;2.20;;
65071;SDS011;51663;52.310;17.016;2023-04-25T02:44:34;2.70;;;2.50;;
65071;SDS011;51663;52.310;17.016;2023-04-25T02:51:59;2.63;;;2.43;;
65071;SDS011;51663;52.310;17.016;2023-04-25T02:55:23;2.47;;;2.37;;
65071;SDS011;51663;52.310;17.016;2023-04-25T03:03:07;2.90;;;2.70;;
65071;SDS011;51663;52.310;17.016;2023-04-25T03:10:58;3.70;;;2.63;;
65071;SDS011;51663;52.310;17.016;2023-04-25T03:22:55;3.60;;;3.30;;
65071;SDS011;51663;52.310;17.016;2023-04-25T03:26:00;4.93;;;3.40;;
65071;SDS011;51663;52.310;17.016;2023-04-25T03:30:31;4.17;;;3.87;;
65071;SDS011;51663;52.310;17.016;2023-04-25T03:34:20;3.03;;;2.83;;
65071;SDS011;51663;52.310;17.016;2023-04-25T03:38:11;3.60;;;3.40;;
65071;SDS011;51663;52.310;17.016;2023-04-25T03:45:57;5.17;;;3.60;;
65071;SDS011;51663;52.310;17.016;2023-04-25T03:49:09;3.57;;;3.10;;
65071;SDS011;51663;52.310;17.016;2023-04-25T03:56:42;5.83;;;3.60;;
65071;SDS011;51663;52.310;17.016;2023-04-25T03:59:44;6.67;;;3.57;;
65071;SDS011;51663;52.310;17.016;2023-04-25T04:03:39;3.80;;;3.50;;
65071;SDS011;51663;52.310;17.016;2023-04-25T04:07:00;4.10;;;3.70;;
65071;SDS011;51663;52.310;17.016;2023-04-25T04:10:15;4.20;;;3.80;;
65071;SDS011;51663;52.310;17.016;2023-04-25T04:13:59;5.23;;;4.20;;
65071;SDS011;51663;52.310;17.016;2023-04-25T04:17:01;7.80;;;4.37;;
65071;SDS011;51663;52.310;17.016;2023-04-25T04:20:04;5.67;;;3.90;;
65071;SDS011;51663;52.310;17.016;2023-04-25T04:27:17;4.13;;;3.83;;
65071;SDS011;51663;52.310;17.016;2023-04-25T04:35:54;4.53;;;4.13;;
65071;SDS011;51663;52.310;17.016;2023-04-25T04:43:03;4.00;;;3.60;;
65071;SDS011;51663;52.310;17.016;2023-04-25T04:54:50;4.70;;;3.70;;
65071;SDS011;51663;52.310;17.016;2023-04-25T04:58:35;3.87;;;3.20;;
65071;SDS011;51663;52.310;17.016;2023-04-25T05:02:03;3.35;;;3.00;;
65071;SDS011;51663;52.310;17.016;2023-04-25T05:05:05;3.40;;;3.10;;
65071;SDS011;51663;52.310;17.016;2023-04-25T05:16:55;5.28;;;3.28;;
65071;SDS011;51663;52.310;17.016;2023-04-25T05:33:13;5.72;;;3.38;;
65071;SDS011;51663;52.310;17.016;2023-04-25T05:36:19;3.20;;;2.90;;
65071;SDS011;51663;52.310;17.016;2023-04-25T05:39:34;3.17;;;2.97;;
65071;SDS011;51663;52.310;17.016;2023-04-25T05:43:13;4.18;;;2.78;;
65071;SDS011;51663;52.310;17.016;2023-04-25T05:46:15;4.03;;;3.30;;
65071;SDS011;51663;52.310;17.016;2023-04-25T05:49:18;4.78;;;3.55;;
65071;SDS011;51663;52.310;17.016;2023-04-25T05:52:22;3.05;;;2.80;;
65071;SDS011;51663;52.310;17.016;2023-04-25T05:55:24;3.70;;;3.40;;
65071;SDS011;51663;52.310;17.016;2023-04-25T05:58:27;3.20;;;2.90;;
65071;SDS011;51663;52.310;17.016;2023-04-25T06:01:29;4.07;;;3.50;;
65071;SDS011;51663;52.310;17.016;2023-04-25T06:04:31;2.90;;;2.70;;
65071;SDS011;51663;52.310;17.016;2023-04-25T06:07:34;3.42;;;2.95;;
65071;SDS011;51663;52.310;17.016;2023-04-25T06:10:36;4.18;;;2.95;;
65071;SDS011;51663;52.310;17.016;2023-04-25T06:13:41;3.40;;;2.83;;
65071;SDS011;51663;52.310;17.016;2023-04-25T06:16:43;4.85;;;2.85;;
65071;SDS011;51663;52.310;17.016;2023-04-25T06:19:46;3.28;;;2.70;;
65071;SDS011;51663;52.310;17.016;2023-04-25T06:22:49;3.13;;;2.67;;
65071;SDS011;51663;52.310;17.016;2023-04-25T06:25:52;3.15;;;2.90;;
65071;SDS011;51663;52.310;17.016;2023-04-25T06:28:54;3.65;;;2.70;;
65071;SDS011;51663;52.310;17.016;2023-04-25T06:31:56;4.38;;;2.85;;
65071;SDS011;51663;52.310;17.016;2023-04-25T06:35:04;5.65;;;2.70;;
65071;SDS011;51663;52.310;17.016;2023-04-25T06:38:06;4.57;;;2.95;;
65071;SDS011;51663;52.310;17.016;2023-04-25T06:41:09;6.72;;;3.75;;
65071;SDS011;51663;52.310;17.016;2023-04-25T06:44:11;3.88;;;3.05;;
65071;SDS011;51663;52.310;17.016;2023-04-25T06:47:14;3.47;;;3.17;;
65071;SDS011;51663;52.310;17.016;2023-04-25T06:50:16;4.53;;;2.85;;
65071;SDS011;51663;52.310;17.016;2023-04-25T06:53:18;4.40;;;2.78;;
65071;SDS011;51663;52.310;17.016;2023-04-25T06:56:21;5.22;;;3.45;;
65071;SDS011;51663;52.310;17.016;2023-04-25T06:59:23;4.50;;;3.35;;
65071;SDS011;51663;52.310;17.016;2023-04-25T07:02:25;5.00;;;3.03;;
65071;SDS011;51663;52.310;17.016;2023-04-25T07:05:30;5.07;;;3.60;;
65071;SDS011;51663;52.310;17.016;2023-04-25T07:08:38;7.88;;;3.38;;
65071;SDS011;51663;52.310;17.016;2023-04-25T07:11:41;3.78;;;2.90;;
65071;SDS011;51663;52.310;17.016;2023-04-25T07:14:43;4.40;;;3.53;;
65071;SDS011;51663;52.310;17.016;2023-04-25T07:17:45;3.25;;;2.90;;
65071;SDS011;51663;52.310;17.016;2023-04-25T07:20:48;3.78;;;3.15;;
65071;SDS011;51663;52.310;17.016;2023-04-25T07:23:53;5.68;;;3.33;;
65071;SDS011;51663;52.310;17.016;2023-04-25T07:26:55;6.65;;;4.00;;
65071;SDS011;51663;52.310;17.016;2023-04-25T07:29:57;4.20;;;3.33;;
65071;SDS011;51663;52.310;17.016;2023-04-25T07:33:00;6.72;;;3.35;;
65071;SDS011;51663;52.310;17.016;2023-04-25T07:36:03;5.72;;;3.58;;
65071;SDS011;51663;52.310;17.016;2023-04-25T07:39:06;5.63;;;3.47;;
65071;SDS011;51663;52.310;17.016;2023-04-25T07:42:10;5.03;;;3.42;;
65071;SDS011;51663;52.310;17.016;2023-04-25T07:45:18;3.35;;;2.92;;
65071;SDS011;51663;52.310;17.016;2023-04-25T07:48:21;4.30;;;2.88;;
65071;SDS011;51663;52.310;17.016;2023-04-25T07:51:24;4.65;;;3.15;;
65071;SDS011;51663;52.310;17.016;2023-04-25T07:54:31;6.82;;;3.00;;
65071;SDS011;51663;52.310;17.016;2023-04-25T07:57:36;4.40;;;3.03;;
65071;SDS011;51663;52.310;17.016;2023-04-25T08:00:50;3.40;;;3.13;;
65071;SDS011;51663;52.310;17.016;2023-04-25T08:03:58;4.88;;;3.42;;
65071;SDS011;51663;52.310;17.016;2023-04-25T08:07:04;3.78;;;2.90;;
65071;SDS011;51663;52.310;17.016;2023-04-25T08:10:07;3.85;;;3.03;;
65071;SDS011;51663;52.310;17.016;2023-04-25T08:13:10;3.63;;;3.05;;
65071;SDS011;51663;52.310;17.016;2023-04-25T08:16:12;5.25;;;3.08;;
65071;SDS011;51663;52.310;17.016;2023-04-25T08:19:15;4.03;;;3.33;;
65071;SDS011;51663;52.310;17.016;2023-04-25T08:22:18;3.85;;;3.00;;
65071;SDS011;51663;52.310;17.016;2023-04-25T08:25:20;6.60;;;4.80;;
65071;SDS011;51663;52.310;17.016;2023-04-25T08:28:23;9.00;;;2.85;;
65071;SDS011;51663;52.310;17.016;2023-04-25T08:31:25;4.13;;;3.15;;
65071;SDS011;51663;52.310;17.016;2023-04-25T08:34:29;3.90;;;3.55;;
65071;SDS011;51663;52.310;17.016;2023-04-25T08:37:32;4.63;;;3.25;;
65071;SDS011;51663;52.310;17.016;2023-04-25T08:40:37;4.55;;;3.42;;
65071;SDS011;51663;52.310;17.016;2023-04-25T08:43:55;4.10;;;3.40;;
65071;SDS011;51663;52.310;17.016;2023-04-25T08:47:02;3.83;;;3.10;;
65071;SDS011;51663;52.310;17.016;2023-04-25T08:50:06;4.28;;;3.40;;
65071;SDS011;51663;52.310;17.016;2023-04-25T08:53:09;4.05;;;3.20;;
65071;SDS011;51663;52.310;17.016;2023-04-25T08:56:22;4.18;;;3.13;;
65071;SDS011;51663;52.310;17.016;2023-04-25T08:59:26;5.35;;;3.20;;
65071;SDS011;51663;52.310;17.016;2023-04-25T09:02:29;3.88;;;2.80;;
65071;SDS011;51663;52.310;17.016;2023-04-25T09:05:32;4.15;;;3.10;;
65071;SDS011;51663;52.310;17.016;2023-04-25T09:08:36;7.97;;;3.40;;
65071;SDS011;51663;52.310;17.016;2023-04-25T09:11:39;3.50;;;3.17;;
65071;SDS011;51663;52.310;17.016;2023-04-25T09:14:54;3.70;;;3.40;;
65071;SDS011;51663;52.310;17.016;2023-04-25T09:18:12;3.38;;;2.83;;
65071;SDS011;51663;52.310;17.016;2023-04-25T09:21:15;12.25;;;3.00;;
65071;SDS011;51663;52.310;17.016;2023-04-25T09:24:32;3.72;;;2.97;;
65071;SDS011;51663;52.310;17.016;2023-04-25T09:27:52;5.20;;;2.53;;
65071;SDS011;51663;52.310;17.016;2023-04-25T09:31:01;5.05;;;2.70;;
65071;SDS011;51663;52.310;17.016;2023-04-25T09:34:04;3.25;;;2.90;;
65071;SDS011;51663;52.310;17.016;2023-04-25T09:37:10;4.45;;;3.20;;
65071;SDS011;51663;52.310;17.016;2023-04-25T09:40:14;2.80;;;2.50;;
65071;SDS011;51663;52.310;17.016;2023-04-25T09:43:22;4.07;;;2.83;;
65071;SDS011;51663;52.310;17.016;2023-04-25T09:46:32;3.83;;;2.33;;
65071;SDS011;51663;52.310;17.016;2023-04-25T09:49:38;5.07;;;3.97;;
65071;SDS011;51663;52.310;17.016;2023-04-25T09:52:44;4.22;;;3.00;;
65071;SDS011;51663;52.310;17.016;2023-04-25T09:55:48;5.25;;;3.20;;
65071;SDS011;51663;52.310;17.016;2023-04-25T09:58:52;5.30;;;3.15;;
65071;SDS011;51663;52.310;17.016;2023-04-25T10:01:57;3.78;;;3.35;;
65071;SDS011;51663;52.310;17.016;2023-04-25T10:05:00;3.72;;;3.42;;
65071;SDS011;51663;52.310;17.016;2023-04-25T10:08:08;7.72;;;3.47;;
65071;SDS011;51663;52.310;17.016;2023-04-25T10:11:10;4.80;;;3.42;;
65071;SDS011;51663;52.310;17.016;2023-04-25T10:14:16;4.50;;;3.35;;
65071;SDS011;51663;52.310;17.016;2023-04-25T10:17:19;4.78;;;3.10;;
65071;SDS011;51663;52.310;17.016;2023-04-25T10:20:22;5.38;;;3.00;;
65071;SDS011;51663;52.310;17.016;2023-04-25T10:23:25;4.13;;;3.05;;
65071;SDS011;51663;52.310;17.016;2023-04-25T10:26:29;15.15;;;3.85;;
65071;SDS011;51663;52.310;17.016;2023-04-25T10:29:32;3.70;;;3.30;;
65071;SDS011;51663;52.310;17.016;2023-04-25T10:32:34;4.53;;;3.20;;
65071;SDS011;51663;52.310;17.016;2023-04-25T10:35:37;3.88;;;3.08;;
65071;SDS011;51663;52.310;17.016;2023-04-25T10:38:41;2.92;;;2.65;;
65071;SDS011;51663;52.310;17.016;2023-04-25T10:41:45;3.03;;;2.72;;
65071;SDS011;51663;52.310;17.016;2023-04-25T10:45:02;3.40;;;3.10;;
65071;SDS011;51663;52.310;17.016;2023-04-25T10:48:24;5.55;;;3.33;;
65071;SDS011;51663;52.310;17.016;2023-04-25T10:51:31;3.53;;;3.20;;
65071;SDS011;51663;52.310;17.016;2023-04-25T10:54:55;4.38;;;2.60;;
65071;SDS011;51663;52.310;17.016;2023-04-25T10:57:58;3.97;;;3.20;;
65071;SDS011;51663;52.310;17.016;2023-04-25T11:01:02;21.75;;;15.70;;
65071;SDS011;51663;52.310;17.016;2023-04-25T11:04:05;5.95;;;2.33;;
65071;SDS011;51663;52.310;17.016;2023-04-25T11:07:13;3.00;;;2.53;;
65071;SDS011;51663;52.310;17.016;2023-04-25T11:10:31;3.38;;;1.90;;
65071;SDS011;51663;52.310;17.016;2023-04-25T11:13:34;2.58;;;2.35;;
65071;SDS011;51663;52.310;17.016;2023-04-25T11:16:37;5.93;;;3.53;;
65071;SDS011;51663;52.310;17.016;2023-04-25T11:19:40;4.47;;;2.58;;
65071;SDS011;51663;52.310;17.016;2023-04-25T11:22:45;3.75;;;2.75;;
65071;SDS011;51663;52.310;17.016;2023-04-25T11:25:50;2.88;;;2.17;;
65071;SDS011;51663;52.310;17.016;2023-04-25T11:28:57;2.20;;;2.00;;
65071;SDS011;51663;52.310;17.016;2023-04-25T11:32:06;15.68;;;4.13;;
65071;SDS011;51663;52.310;17.016;2023-04-25T11:35:10;2.85;;;2.35;;
65071;SDS011;51663;52.310;17.016;2023-04-25T11:38:13;3.97;;;2.35;;
65071;SDS011;51663;52.310;17.016;2023-04-25T11:41:15;2.72;;;2.25;;
65071;SDS011;51663;52.310;17.016;2023-04-25T11:44:18;2.80;;;2.60;;
65071;SDS011;51663;52.310;17.016;2023-04-25T11:47:27;2.90;;;2.70;;
65071;SDS011;51663;52.310;17.016;2023-04-25T11:50:32;4.95;;;3.53;;
65071;SDS011;51663;52.310;17.016;2023-04-25T11:53:35;3.65;;;2.72;;
65071;SDS011;51663;52.310;17.016;2023-04-25T11:56:48;3.42;;;2.35;;
65071;SDS011;51663;52.310;17.016;2023-04-25T11:59:52;2.47;;;2.22;;
65071;SDS011;51663;52.310;17.016;2023-04-25T12:02:54;3.78;;;2.30;;
65071;SDS011;51663;52.310;17.016;2023-04-25T12:06:02;3.67;;;2.40;;
65071;SDS011;51663;52.310;17.016;2023-04-25T12:09:11;3.10;;;2.80;;
65071;SDS011;51663;52.310;17.016;2023-04-25T12:12:20;3.67;;;2.70;;
65071;SDS011;51663;52.310;17.016;2023-04-25T12:15:23;3.75;;;2.78;;
65071;SDS011;51663;52.310;17.016;2023-04-25T12:18:26;3.80;;;2.65;;
65071;SDS011;51663;52.310;17.016;2023-04-25T12:21:29;3.95;;;3.08;;
65071;SDS011;51663;52.310;17.016;2023-04-25T12:28:35;2.72;;;2.47;;
65071;SDS011;51663;52.310;17.016;2023-04-25T12:31:45;3.83;;;2.90;;
65071;SDS011;51663;52.310;17.016;2023-04-25T12:34:48;3.47;;;3.15;;
65071;SDS011;51663;52.310;17.016;2023-04-25T12:37:56;3.95;;;2.63;;
65071;SDS011;51663;52.310;17.016;2023-04-25T12:40:59;6.03;;;2.70;;
65071;SDS011;51663;52.310;17.016;2023-04-25T12:44:02;5.72;;;2.75;;
65071;SDS011;51663;52.310;17.016;2023-04-25T12:47:05;2.75;;;2.30;;
65071;SDS011;51663;52.310;17.016;2023-04-25T12:50:08;5.30;;;3.15;;
65071;SDS011;51663;52.310;17.016;2023-04-25T12:53:14;2.80;;;2.45;;
65071;SDS011;51663;52.310;17.016;2023-04-25T12:56:26;2.85;;;2.33;;
65071;SDS011;51663;52.310;17.016;2023-04-25T12:59:29;6.55;;;2.58;;
65071;SDS011;51663;52.310;17.016;2023-04-25T13:02:37;3.17;;;2.35;;
65071;SDS011;51663;52.310;17.016;2023-04-25T13:05:39;2.78;;;2.58;;
65071;SDS011;51663;52.310;17.016;2023-04-25T13:08:45;2.88;;;2.58;;
65071;SDS011;51663;52.310;17.016;2023-04-25T13:11:57;2.35;;;2.13;;
65071;SDS011;51663;52.310;17.016;2023-04-25T13:14:59;2.65;;;2.08;;
65071;SDS011;51663;52.310;17.016;2023-04-25T13:18:05;3.13;;;2.80;;
65071;SDS011;51663;52.310;17.016;2023-04-25T13:21:11;2.83;;;2.50;;
65071;SDS011;51663;52.310;17.016;2023-04-25T13:24:14;2.08;;;1.95;;
65071;SDS011;51663;52.310;17.016;2023-04-25T13:27:17;2.25;;;2.00;;
65071;SDS011;51663;52.310;17.016;2023-04-25T13:30:20;3.50;;;1.95;;
65071;SDS011;51663;52.310;17.016;2023-04-25T13:33:23;2.90;;;2.40;;
65071;SDS011;51663;52.310;17.016;2023-04-25T13:36:25;4.70;;;2.28;;
65071;SDS011;51663;52.310;17.016;2023-04-25T13:39:27;2.15;;;1.95;;
65071;SDS011;51663;52.310;17.016;2023-04-25T13:42:31;1.30;;;0.90;;
65071;SDS011;51663;52.310;17.016;2023-04-25T13:45:33;1.35;;;0.65;;
65071;SDS011;51663;52.310;17.016;2023-04-25T13:48:39;0.65;;;0.65;;
65071;SDS011;51663;52.310;17.016;2023-04-25T13:51:49;1.38;;;0.60;;
65071;SDS011;51663;52.310;17.016;2023-04-25T13:54:57;0.60;;;0.60;;
65071;SDS011;51663;52.310;17.016;2023-04-25T13:58:03;2.00;;;1.80;;
65071;SDS011;51663;52.310;17.016;2023-04-25T14:01:18;0.97;;;0.77;;
65071;SDS011;51663;52.310;17.016;2023-04-25T14:04:23;1.77;;;1.10;;
65071;SDS011;51663;52.310;17.016;2023-04-25T14:07:28;0.80;;;0.80;;
65071;SDS011;51663;52.310;17.016;2023-04-25T14:10:51;1.63;;;1.00;;
65071;SDS011;51663;52.310;17.016;2023-04-25T14:14:07;1.47;;;1.00;;
65071;SDS011;51663;52.310;17.016;2023-04-25T14:17:10;1.20;;;1.10;;
65071;SDS011;51663;52.310;17.016;2023-04-25T14:20:25;1.60;;;1.50;;
65071;SDS011;51663;52.310;17.016;2023-04-25T14:23:36;4.63;;;2.27;;
65071;SDS011;51663;52.310;17.016;2023-04-25T14:26:52;3.60;;;2.57;;
65071;SDS011;51663;52.310;17.016;2023-04-25T14:30:08;2.33;;;2.13;;
65071;SDS011;51663;52.310;17.016;2023-04-25T14:33:57;4.07;;;2.72;;
65071;SDS011;51663;52.310;17.016;2023-04-25T14:37:24;3.05;;;2.50;;
65071;SDS011;51663;52.310;17.016;2023-04-25T14:40:47;4.80;;;2.90;;
65071;SDS011;51663;52.310;17.016;2023-04-25T14:44:07;3.08;;;2.72;;
65071;SDS011;51663;52.310;17.016;2023-04-25T14:47:51;3.65;;;2.45;;
65071;SDS011;51663;52.310;17.016;2023-04-25T14:51:03;3.55;;;2.83;;
65071;SDS011;51663;52.310;17.016;2023-04-25T14:54:23;16.83;;;5.70;;
65071;SDS011;51663;52.310;17.016;2023-04-25T14:57:34;3.28;;;2.88;;
65071;SDS011;51663;52.310;17.016;2023-04-25T15:01:06;4.18;;;3.85;;
65071;SDS011;51663;52.310;17.016;2023-04-25T15:04:22;6.73;;;3.83;;
65071;SDS011;51663;52.310;17.016;2023-04-25T15:07:26;3.50;;;3.20;;
65071;SDS011;51663;52.310;17.016;2023-04-25T15:14:41;5.90;;;3.60;;
65071;SDS011;51663;52.310;17.016;2023-04-25T15:18:01;4.40;;;3.27;;
65071;SDS011;51663;52.310;17.016;2023-04-25T15:21:08;5.50;;;2.90;;
65071;SDS011;51663;52.310;17.016;2023-04-25T15:24:30;6.37;;;2.43;;
65071;SDS011;51663;52.310;17.016;2023-04-25T15:27:46;6.10;;;2.60;;
65071;SDS011;51663;52.310;17.016;2023-04-25T15:31:03;6.13;;;2.10;;
65071;SDS011;51663;52.310;17.016;2023-04-25T15:34:09;8.85;;;2.28;;
65071;SDS011;51663;52.310;17.016;2023-04-25T15:37:19;7.17;;;2.77;;
65071;SDS011;51663;52.310;17.016;2023-04-25T15:40:31;3.93;;;2.23;;
65071;SDS011;51663;52.310;17.016;2023-04-25T15:43:38;4.30;;;2.50;;
65071;SDS011;51663;52.310;17.016;2023-04-25T15:46:51;6.53;;;2.67;;
65071;SDS011;51663;52.310;17.016;2023-04-25T15:49:55;7.80;;;2.28;;
65071;SDS011;51663;52.310;17.016;2023-04-25T15:53:03;5.83;;;2.10;;
65071;SDS011;51663;52.310;17.016;2023-04-25T15:56:36;9.23;;;5.63;;
65071;SDS011;51663;52.310;17.016;2023-04-25T15:59:38;7.03;;;3.17;;
65071;SDS011;51663;52.310;17.016;2023-04-25T16:02:42;5.60;;;2.67;;
65071;SDS011;51663;52.310;17.016;2023-04-25T16:05:48;6.43;;;3.23;;
65071;SDS011;51663;52.310;17.016;2023-04-25T16:09:06;6.30;;;2.70;;
65071;SDS011;51663;52.310;17.016;2023-04-25T16:12:10;6.27;;;2.90;;
65071;SDS011;51663;52.310;17.016;2023-04-25T16:15:13;9.17;;;2.87;;
65071;SDS011;51663;52.310;17.016;2023-04-25T16:18:15;10.73;;;4.00;;
65071;SDS011;51663;52.310;17.016;2023-04-25T16:21:19;7.27;;;3.30;;
65071;SDS011;51663;52.310;17.016;2023-04-25T16:24:22;5.60;;;3.20;;
65071;SDS011;51663;52.310;17.016;2023-04-25T16:27:31;7.17;;;3.60;;
65071;SDS011;51663;52.310;17.016;2023-04-25T16:31:08;7.70;;;4.50;;
65071;SDS011;51663;52.310;17.016;2023-04-25T16:34:22;8.87;;;3.70;;
65071;SDS011;51663;52.310;17.016;2023-04-25T16:37:48;8.87;;;4.00;;
65071;SDS011;51663;52.310;17.016;2023-04-25T16:41:00;8.87;;;3.33;;
65071;SDS011;51663;52.310;17.016;2023-04-25T16:44:09;10.30;;;3.40;;
65071;SDS011;51663;52.310;17.016;2023-04-25T16:47:11;10.17;;;3.47;;
65071;SDS011;51663;52.310;17.016;2023-04-25T16:50:22;7.70;;;3.23;;
65071;SDS011;51663;52.310;17.016;2023-04-25T16:53:36;13.03;;;3.17;;
65071;SDS011;51663;52.310;17.016;2023-04-25T16:56:42;7.30;;;3.70;;
65071;SDS011;51663;52.310;17.016;2023-04-25T16:59:46;7.50;;;4.50;;
65071;SDS011;51663;52.310;17.016;2023-04-25T17:02:49;9.60;;;3.57;;
65071;SDS011;51663;52.310;17.016;2023-04-25T17:05:54;9.37;;;3.70;;
65071;SDS011;51663;52.310;17.016;2023-04-25T17:08:58;7.57;;;3.37;;
65071;SDS011;51663;52.310;17.016;2023-04-25T17:12:07;31.33;;;17.13;;
65071;SDS011;51663;52.310;17.016;2023-04-25T17:19:05;11.57;;;3.50;;
65071;SDS011;51663;52.310;17.016;2023-04-25T17:22:14;12.60;;;4.80;;
65071;SDS011;51663;52.310;17.016;2023-04-25T17:25:23;6.63;;;3.30;;
65071;SDS011;51663;52.310;17.016;2023-04-25T17:28:33;10.80;;;3.57;;
65071;SDS011;51663;52.310;17.016;2023-04-25T17:31:50;11.80;;;4.30;;
65071;SDS011;51663;52.310;17.016;2023-04-25T17:34:58;13.30;;;5.30;;
65071;SDS011;51663;52.310;17.016;2023-04-25T17:38:55;8.90;;;3.00;;
65071;SDS011;51663;52.310;17.016;2023-04-25T17:46:09;14.33;;;6.73;;
65071;SDS011;51663;52.310;17.016;2023-04-25T17:49:22;6.27;;;2.90;;
65071;SDS011;51663;52.310;17.016;2023-04-25T17:53:02;9.73;;;3.20;;
65071;SDS011;51663;52.310;17.016;2023-04-25T17:56:26;11.73;;;3.17;;
65071;SDS011;51663;52.310;17.016;2023-04-25T17:59:59;14.13;;;4.10;;
65071;SDS011;51663;52.310;17.016;2023-04-25T18:08:17;8.57;;;3.50;;
65071;SDS011;51663;52.310;17.016;2023-04-25T18:11:38;10.37;;;3.50;;
65071;SDS011;51663;52.310;17.016;2023-04-25T18:15:30;13.43;;;3.27;;
65071;SDS011;51663;52.310;17.016;2023-04-25T18:18:48;9.50;;;3.17;;
65071;SDS011;51663;52.310;17.016;2023-04-25T18:22:23;9.53;;;3.40;;
65071;SDS011;51663;52.310;17.016;2023-04-25T18:25:30;11.00;;;4.20;;
65071;SDS011;51663;52.310;17.016;2023-04-25T18:29:00;12.97;;;4.87;;
65071;SDS011;51663;52.310;17.016;2023-04-25T18:33:02;15.73;;;7.20;;
65071;SDS011;51663;52.310;17.016;2023-04-25T18:36:22;12.87;;;6.13;;
65071;SDS011;51663;52.310;17.016;2023-04-25T18:40:27;17.33;;;7.00;;
65071;SDS011;51663;52.310;17.016;2023-04-25T18:43:44;22.60;;;7.23;;
65071;SDS011;51663;52.310;17.016;2023-04-25T18:47:34;19.77;;;7.20;;
65071;SDS011;51663;52.310;17.016;2023-04-25T18:51:26;14.63;;;7.57;;
65071;SDS011;51663;52.310;17.016;2023-04-25T18:54:36;20.53;;;9.50;;
65071;SDS011;51663;52.310;17.016;2023-04-25T18:57:51;26.33;;;10.07;;
65071;SDS011;51663;52.310;17.016;2023-04-25T19:01:14;16.93;;;9.07;;
65071;SDS011;51663;52.310;17.016;2023-04-25T19:04:42;21.67;;;9.07;;
65071;SDS011;51663;52.310;17.016;2023-04-25T19:07:59;21.43;;;10.87;;
65071;SDS011;51663;52.310;17.016;2023-04-25T19:11:19;28.63;;;16.60;;
65071;SDS011;51663;52.310;17.016;2023-04-25T19:14:34;16.83;;;9.13;;
65071;SDS011;51663;52.310;17.016;2023-04-25T19:17:43;22.53;;;8.03;;
65071;SDS011;51663;52.310;17.016;2023-04-25T19:21:43;19.60;;;7.50;;
65071;SDS011;51663;52.310;17.016;2023-04-25T19:25:11;15.87;;;7.40;;
65071;SDS011;51663;52.310;17.016;2023-04-25T19:28:23;21.17;;;8.10;;
65071;SDS011;51663;52.310;17.016;2023-04-25T19:32:03;19.97;;;8.13;;
65071;SDS011;51663;52.310;17.016;2023-04-25T19:36:00;22.97;;;9.50;;
65071;SDS011;51663;52.310;17.016;2023-04-25T19:43:54;18.80;;;9.57;;
65071;SDS011;51663;52.310;17.016;2023-04-25T19:47:43;23.70;;;8.87;;
65071;SDS011;51663;52.310;17.016;2023-04-25T19:51:35;28.83;;;16.33;;
65071;SDS011;51663;52.310;17.016;2023-04-25T19:55:19;18.47;;;8.70;;
65071;SDS011;51663;52.310;17.016;2023-04-25T19:58:52;17.73;;;7.17;;
65071;SDS011;51663;52.310;17.016;2023-04-25T20:03:08;13.57;;;6.70;;
65071;SDS011;51663;52.310;17.016;2023-04-25T20:07:13;23.53;;;9.10;;
65071;SDS011;51663;52.310;17.016;2023-04-25T20:10:29;25.33;;;9.03;;
65071;SDS011;51663;52.310;17.016;2023-04-25T20:14:00;21.53;;;9.43;;
65071;SDS011;51663;52.310;17.016;2023-04-25T20:17:17;28.13;;;9.90;;
65071;SDS011;51663;52.310;17.016;2023-04-25T20:20:26;16.23;;;8.17;;
65071;SDS011;51663;52.310;17.016;2023-04-25T20:24:32;18.00;;;9.03;;
65071;SDS011;51663;52.310;17.016;2023-04-25T20:27:45;14.83;;;6.30;;
65071;SDS011;51663;52.310;17.016;2023-04-25T20:30:51;15.50;;;6.50;;
65071;SDS011;51663;52.310;17.016;2023-04-25T20:33:55;13.47;;;5.83;;
65071;SDS011;51663;52.310;17.016;2023-04-25T20:37:08;10.47;;;4.80;;
65071;SDS011;51663;52.310;17.016;2023-04-25T20:40:23;8.67;;;5.27;;
65071;SDS011;51663;52.310;17.016;2023-04-25T20:43:29;10.03;;;4.83;;
65071;SDS011;51663;52.310;17.016;2023-04-25T20:46:38;9.57;;;5.67;;
65071;SDS011;51663;52.310;17.016;2023-04-25T20:49:57;12.53;;;5.90;;
65071;SDS011;51663;52.310;17.016;2023-04-25T20:53:17;15.30;;;6.03;;
65071;SDS011;51663;52.310;17.016;2023-04-25T20:56:33;14.03;;;5.73;;
65071;SDS011;51663;52.310;17.016;2023-04-25T20:59:38;13.77;;;5.67;;
65071;SDS011;51663;52.310;17.016;2023-04-25T21:02:41;12.50;;;6.20;;
65071;SDS011;51663;52.310;17.016;2023-04-25T21:05:52;12.03;;;5.63;;
65071;SDS011;51663;52.310;17.016;2023-04-25T21:08:57;12.17;;;6.00;;
65071;SDS011;51663;52.310;17.016;2023-04-25T21:12:14;16.80;;;7.27;;
65071;SDS011;51663;52.310;17.016;2023-04-25T21:15:39;18.97;;;8.00;;
65071;SDS011;51663;52.310;17.016;2023-04-25T21:19:03;17.47;;;7.93;;
65071;SDS011;51663;52.310;17.016;2023-04-25T21:22:22;18.57;;;7.27;;
65071;SDS011;51663;52.310;17.016;2023-04-25T21:25:35;15.23;;;6.80;;
65071;SDS011;51663;52.310;17.016;2023-04-25T21:28:45;18.27;;;7.27;;
65071;SDS011;51663;52.310;17.016;2023-04-25T21:31:53;13.33;;;5.80;;
65071;SDS011;51663;52.310;17.016;2023-04-25T21:35:02;13.83;;;6.70;;
65071;SDS011;51663;52.310;17.016;2023-04-25T21:38:16;12.73;;;6.17;;